createdAt,value
2022-11-05T00:01:57.409Z,1.80
2022-11-05T00:04:47.329Z,1.77
2022-11-05T00:08:00.577Z,1.83
2022-11-05T00:10:38.947Z,1.90
2022-11-05T00:13:30.828Z,1.90
2022-11-05T00:16:20.433Z,1.77
2022-11-05T00:19:09.326Z,1.87
2022-11-05T00:21:58.282Z,2.10
2022-11-05T00:24:47.565Z,2.00
2022-11-05T00:27:19.992Z,1.80
2022-11-05T00:32:35.265Z,1.90
2022-11-05T00:35:07.272Z,2.10
2022-11-05T00:37:39.190Z,1.70
2022-11-05T00:40:09.032Z,1.90
2022-11-05T00:43:01.336Z,1.80
2022-11-05T00:45:32.513Z,1.80
2022-11-05T00:48:20.451Z,1.53
2022-11-05T00:50:51.690Z,1.70
2022-11-05T00:53:21.298Z,1.90
2022-11-05T00:55:52.922Z,2.00
2022-11-05T01:01:15.177Z,1.80
2022-11-05T01:03:48.830Z,1.70
2022-11-05T01:06:22.072Z,1.80
2022-11-05T01:08:52.420Z,1.90
2022-11-05T01:11:39.674Z,1.80
2022-11-05T01:14:14.069Z,1.70
2022-11-05T01:16:50.914Z,1.80
2022-11-05T01:19:18.796Z,1.80
2022-11-05T01:24:32.642Z,1.70
2022-11-05T01:29:53.577Z,2.30
2022-11-05T01:35:21.795Z,2.00
2022-11-05T01:37:52.630Z,2.10
2022-11-05T01:40:32.359Z,2.20
2022-11-05T01:43:00.324Z,2.10
2022-11-05T01:45:28.975Z,2.30
2022-11-05T01:48:19.178Z,2.20
2022-11-05T01:51:08.450Z,1.93
2022-11-05T01:54:02.893Z,2.03
2022-11-05T01:56:43.467Z,2.00
2022-11-05T01:59:32.348Z,2.20
2022-11-05T02:02:04.995Z,2.23
2022-11-05T02:04:45.520Z,2.30
2022-11-05T02:07:14.815Z,2.10
2022-11-05T02:10:09.873Z,2.17
2022-11-05T02:12:41.483Z,2.17
2022-11-05T02:15:18.284Z,2.30
2022-11-05T02:17:57.797Z,2.50
2022-11-05T02:20:52.288Z,2.40
2022-11-05T02:23:50.200Z,2.30
2022-11-05T02:26:57.494Z,2.17
2022-11-05T02:29:58.178Z,2.40
2022-11-05T02:33:07.125Z,2.90
2022-11-05T02:39:15.413Z,2.70
2022-11-05T02:42:15.686Z,3.00
2022-11-05T02:45:02.460Z,3.00
2022-11-05T02:47:55.176Z,2.83
2022-11-05T02:51:03.773Z,2.73
2022-11-05T02:53:52.442Z,2.60
2022-11-05T02:56:39.898Z,2.93
2022-11-05T02:59:09.513Z,2.67
2022-11-05T03:01:40.915Z,2.80
2022-11-05T03:04:15.904Z,2.67
2022-11-05T03:07:24.047Z,2.47
2022-11-05T03:10:13.206Z,2.50
2022-11-05T03:13:16.429Z,2.73
2022-11-05T03:16:00.503Z,2.30
2022-11-05T03:18:48.683Z,2.77
2022-11-05T03:21:27.890Z,2.60
2022-11-05T03:24:36.505Z,2.70
2022-11-05T03:27:16.367Z,2.60
2022-11-05T03:29:53.018Z,2.90
2022-11-05T03:32:23.123Z,2.80
2022-11-05T03:34:59.019Z,3.00
2022-11-05T03:37:35.377Z,3.00
2022-11-05T03:40:07.554Z,2.93
2022-11-05T03:42:44.284Z,3.10
2022-11-05T03:45:36.208Z,3.30
2022-11-05T03:48:13.478Z,3.40
2022-11-05T03:51:04.349Z,3.30
2022-11-05T03:53:39.136Z,3.30
2022-11-05T03:56:54.450Z,3.43
2022-11-05T04:02:06.609Z,3.40
2022-11-05T04:04:37.443Z,3.80
2022-11-05T04:07:25.233Z,3.50
2022-11-05T04:10:15.772Z,3.87
2022-11-05T04:13:03.307Z,3.40
2022-11-05T04:15:57.491Z,3.50
2022-11-05T04:18:35.617Z,3.60
2022-11-05T04:21:27.582Z,3.70
2022-11-05T04:24:12.320Z,3.50
2022-11-05T04:26:44.150Z,3.47
2022-11-05T04:29:33.268Z,3.40
2022-11-05T04:32:05.106Z,3.60
2022-11-05T04:34:41.705Z,3.13
2022-11-05T04:37:12.211Z,3.50
2022-11-05T04:42:25.938Z,3.83
2022-11-05T04:44:55.937Z,3.30
2022-11-05T04:50:12.091Z,3.63
2022-11-05T04:52:44.103Z,3.57
2022-11-05T04:55:11.681Z,3.80
2022-11-05T04:57:39.014Z,3.63
2022-11-05T05:00:18.730Z,3.60
2022-11-05T05:02:48.798Z,3.80
2022-11-05T05:05:19.381Z,3.83
2022-11-05T05:10:33.636Z,4.00
2022-11-05T05:13:12.322Z,3.93
2022-11-05T05:15:40.721Z,3.90
2022-11-05T05:18:19.378Z,3.90
2022-11-05T05:21:08.131Z,3.90
2022-11-05T05:26:22.546Z,3.80
2022-11-05T05:28:59.091Z,3.83
2022-11-05T05:31:26.850Z,4.40
2022-11-05T05:33:57.367Z,3.93
2022-11-05T05:39:11.461Z,4.00
2022-11-05T05:41:39.910Z,4.57
2022-11-05T05:44:07.044Z,4.53
2022-11-05T05:49:22.964Z,4.33
2022-11-05T05:51:53.318Z,4.27
2022-11-05T05:54:29.140Z,4.57
2022-11-05T05:57:02.627Z,4.27
2022-11-05T05:59:30.078Z,4.20
2022-11-05T06:02:00.783Z,4.40
2022-11-05T06:04:28.793Z,4.70
2022-11-05T06:06:58.965Z,4.87
2022-11-05T06:09:26.998Z,4.70
2022-11-05T06:11:54.751Z,4.90
2022-11-05T06:14:25.011Z,4.77
2022-11-05T06:16:55.104Z,4.60
2022-11-05T06:19:28.340Z,4.33
2022-11-05T06:21:59.100Z,4.97
2022-11-05T06:24:29.180Z,4.87
2022-11-05T06:26:59.778Z,5.13
2022-11-05T06:29:26.804Z,6.30
2022-11-05T06:31:58.833Z,5.77
2022-11-05T06:34:27.468Z,5.97
2022-11-05T06:36:58.293Z,5.90
2022-11-05T06:42:19.256Z,4.87
2022-11-05T06:44:46.916Z,5.20
2022-11-05T06:49:59.087Z,5.20
2022-11-05T06:52:31.202Z,4.77
2022-11-05T06:55:01.468Z,4.60
2022-11-05T06:57:31.668Z,4.93
2022-11-05T07:00:07.315Z,4.70
2022-11-05T07:02:37.665Z,4.70
2022-11-05T07:05:15.136Z,4.77
2022-11-05T07:07:46.055Z,5.10
2022-11-05T07:10:17.240Z,4.73
2022-11-05T07:15:32.558Z,4.50
2022-11-05T07:18:06.968Z,5.10
2022-11-05T07:23:21.595Z,5.60
2022-11-05T07:28:34.339Z,5.50
2022-11-05T07:31:03.019Z,4.73
2022-11-05T07:39:00.571Z,4.60
2022-11-05T07:41:34.570Z,5.10
2022-11-05T07:44:08.285Z,5.00
2022-11-05T07:46:38.380Z,4.63
2022-11-05T07:51:52.843Z,4.57
2022-11-05T07:54:23.637Z,4.93
2022-11-05T07:59:38.092Z,4.67
2022-11-05T08:02:08.844Z,4.63
2022-11-05T08:04:41.051Z,4.73
2022-11-05T08:07:11.617Z,4.53
2022-11-05T08:09:41.439Z,4.80
2022-11-05T08:12:18.844Z,4.60
2022-11-05T08:14:49.340Z,4.70
2022-11-05T08:17:27.416Z,4.60
2022-11-05T08:22:46.320Z,4.30
2022-11-05T08:25:16.167Z,4.50
2022-11-05T08:27:53.212Z,4.30
2022-11-05T08:30:27.096Z,4.50
2022-11-05T08:35:45.799Z,4.50
2022-11-05T08:38:16.967Z,4.40
2022-11-05T08:40:55.570Z,4.63
2022-11-05T08:43:26.470Z,4.50
2022-11-05T08:45:57.848Z,4.63
2022-11-05T08:48:29.676Z,4.40
2022-11-05T08:51:02.255Z,4.50
2022-11-05T08:53:31.915Z,4.33
2022-11-05T08:56:01.252Z,4.50
2022-11-05T08:58:31.566Z,4.77
2022-11-05T09:01:04.979Z,4.50
2022-11-05T09:03:43.266Z,4.50
2022-11-05T09:06:14.802Z,4.03
2022-11-05T09:08:44.298Z,4.03
2022-11-05T09:11:15.092Z,4.47
2022-11-05T09:13:47.442Z,4.90
2022-11-05T09:16:24.721Z,5.67
2022-11-05T09:18:55.138Z,6.53
2022-11-05T09:21:26.474Z,5.20
2022-11-05T09:23:56.168Z,5.00
2022-11-05T09:26:24.972Z,5.00
2022-11-05T09:28:56.138Z,5.20
2022-11-05T09:31:25.056Z,5.00
2022-11-05T09:33:55.213Z,5.50
2022-11-05T09:41:50.074Z,6.23
2022-11-05T09:44:25.919Z,5.80
2022-11-05T09:46:58.139Z,5.33
2022-11-05T09:49:53.833Z,5.10
2022-11-05T09:52:33.225Z,5.10
2022-11-05T09:55:07.624Z,5.20
2022-11-05T09:57:49.048Z,5.23
2022-11-05T10:00:17.578Z,5.10
2022-11-05T10:03:07.164Z,5.00
2022-11-05T10:05:54.624Z,5.23
2022-11-05T10:08:27.901Z,5.73
2022-11-05T10:11:03.651Z,5.70
2022-11-05T10:14:14.136Z,8.03
2022-11-05T10:16:47.946Z,7.33
2022-11-05T10:19:25.193Z,7.60
2022-11-05T10:22:08.576Z,6.97
2022-11-05T10:24:37.469Z,7.57
2022-11-05T10:27:06.643Z,8.17
2022-11-05T10:29:38.159Z,7.23
2022-11-05T10:32:07.595Z,6.97
2022-11-05T10:34:38.684Z,7.97
2022-11-05T10:37:09.403Z,8.20
2022-11-05T10:39:37.864Z,6.97
2022-11-05T10:42:51.283Z,7.63
2022-11-05T10:45:40.657Z,8.70
2022-11-05T10:48:22.559Z,8.60
2022-11-05T10:50:52.284Z,8.67
2022-11-05T10:53:26.023Z,9.87
2022-11-05T10:55:55.952Z,9.37
2022-11-05T10:58:31.400Z,8.00
2022-11-05T11:00:58.807Z,7.33
2022-11-05T11:03:51.604Z,8.00
2022-11-05T11:06:32.655Z,7.70
2022-11-05T11:09:08.005Z,7.83
2022-11-05T11:11:42.785Z,7.87
2022-11-05T11:14:20.932Z,8.63
2022-11-05T11:16:51.361Z,10.20
2022-11-05T11:19:22.385Z,9.30
2022-11-05T11:22:11.475Z,9.57
2022-11-05T11:24:50.056Z,9.30
2022-11-05T11:27:27.916Z,8.57
2022-11-05T11:30:05.981Z,8.43
2022-11-05T11:32:37.688Z,8.30
2022-11-05T11:35:11.111Z,8.00
2022-11-05T11:37:42.186Z,8.07
2022-11-05T11:40:23.988Z,7.90
2022-11-05T11:42:59.543Z,9.73
2022-11-05T11:45:50.959Z,8.90
2022-11-05T11:48:23.572Z,8.37
2022-11-05T11:50:54.182Z,9.53
2022-11-05T11:53:37.127Z,9.50
2022-11-05T11:56:21.134Z,8.57
2022-11-05T11:58:55.290Z,8.87
2022-11-05T12:02:10.629Z,8.40
2022-11-05T12:05:10.774Z,9.53
2022-11-05T12:08:00.923Z,8.83
2022-11-05T12:11:10.416Z,9.47
2022-11-05T12:14:16.002Z,8.50
2022-11-05T12:17:11.469Z,9.23
2022-11-05T12:20:13.687Z,9.10
2022-11-05T12:23:05.099Z,7.53
2022-11-05T12:25:54.412Z,7.70
2022-11-05T12:29:04.557Z,8.10
2022-11-05T12:32:22.411Z,8.20
2022-11-05T12:35:46.751Z,13.13
2022-11-05T12:38:32.265Z,8.47
2022-11-05T12:41:33.023Z,7.03
2022-11-05T12:44:24.361Z,7.63
2022-11-05T12:47:17.014Z,7.57
2022-11-05T12:50:25.612Z,7.17
2022-11-05T12:53:23.646Z,5.10
2022-11-05T12:56:00.256Z,4.40
2022-11-05T12:58:39.593Z,3.83
2022-11-05T13:01:37.204Z,3.77
2022-11-05T13:04:30.045Z,3.53
2022-11-05T13:07:15.300Z,4.23
2022-11-05T13:10:20.216Z,4.50
2022-11-05T13:13:11.129Z,4.10
2022-11-05T13:16:20.864Z,4.20
2022-11-05T13:19:17.920Z,5.30
2022-11-05T13:21:56.449Z,4.33
2022-11-05T13:24:39.610Z,4.30
2022-11-05T13:27:18.754Z,4.50
2022-11-05T13:30:22.665Z,5.23
2022-11-05T13:33:12.156Z,5.20
2022-11-05T13:36:30.623Z,4.50
2022-11-05T13:39:30.683Z,4.40
2022-11-05T13:42:40.356Z,4.30
2022-11-05T13:45:47.852Z,4.20
2022-11-05T13:48:53.636Z,3.80
2022-11-05T13:51:55.068Z,4.17
2022-11-05T13:54:43.538Z,4.07
2022-11-05T13:57:52.455Z,4.80
2022-11-05T14:00:26.770Z,4.63
2022-11-05T14:03:19.056Z,4.60
2022-11-05T14:05:58.720Z,4.83
2022-11-05T14:08:28.832Z,5.67
2022-11-05T14:11:40.369Z,8.10
2022-11-05T14:14:20.924Z,11.00
2022-11-05T14:20:24.415Z,4.70
2022-11-05T14:22:53.717Z,4.20
2022-11-05T14:25:27.286Z,3.97
2022-11-05T14:27:58.455Z,4.20
2022-11-05T14:30:56.866Z,4.37
2022-11-05T14:33:36.518Z,4.50
2022-11-05T14:36:21.621Z,4.40
2022-11-05T14:39:04.272Z,4.27
2022-11-05T14:41:56.756Z,4.23
2022-11-05T14:44:38.400Z,5.90
2022-11-05T14:47:19.772Z,4.97
2022-11-05T14:53:40.897Z,4.67
2022-11-05T14:56:20.049Z,4.07
2022-11-05T14:58:49.694Z,4.10
2022-11-05T15:01:37.874Z,4.43
2022-11-05T15:04:43.353Z,3.90
2022-11-05T15:07:25.960Z,4.17
2022-11-05T15:10:10.060Z,4.30
2022-11-05T15:13:04.374Z,4.63
2022-11-05T15:15:48.151Z,5.50
2022-11-05T15:18:42.447Z,4.63
2022-11-05T15:21:25.074Z,5.10
2022-11-05T15:23:59.089Z,4.60
2022-11-05T15:27:13.705Z,5.00
2022-11-05T15:29:43.337Z,5.73
2022-11-05T15:32:38.318Z,6.67
2022-11-05T15:35:30.730Z,7.67
2022-11-05T15:38:02.837Z,6.37
2022-11-05T15:40:35.144Z,5.07
2022-11-05T15:43:24.747Z,4.67
2022-11-05T15:46:33.989Z,5.10
2022-11-05T15:49:16.257Z,5.07
2022-11-05T15:51:44.643Z,4.60
2022-11-05T15:54:30.354Z,4.47
2022-11-05T15:57:02.757Z,4.77
2022-11-05T15:59:33.611Z,4.67
2022-11-05T16:02:35.772Z,5.13
2022-11-05T16:05:14.766Z,4.90
2022-11-05T16:07:47.920Z,5.23
2022-11-05T16:10:30.376Z,5.80
2022-11-05T16:13:36.948Z,7.00
2022-11-05T16:16:44.418Z,6.97
2022-11-05T16:19:41.307Z,6.60
2022-11-05T16:22:12.019Z,6.77
2022-11-05T16:24:43.808Z,6.53
2022-11-05T16:27:23.954Z,7.20
2022-11-05T16:32:43.385Z,6.60
2022-11-05T16:35:40.980Z,7.63
2022-11-05T16:38:17.105Z,8.97
2022-11-05T16:40:47.058Z,9.90
2022-11-05T16:43:27.556Z,9.47
2022-11-05T16:48:42.908Z,10.47
2022-11-05T16:51:18.700Z,10.03
2022-11-05T16:53:51.822Z,10.30
2022-11-05T16:56:33.626Z,8.87
2022-11-05T16:59:08.223Z,9.20
2022-11-05T17:01:56.011Z,8.37
2022-11-05T17:04:28.226Z,7.13
2022-11-05T17:09:49.187Z,6.97
2022-11-05T17:12:19.592Z,6.20
2022-11-05T17:14:50.495Z,6.20
2022-11-05T17:17:31.146Z,6.27
2022-11-05T17:22:55.595Z,6.40
2022-11-05T17:25:28.547Z,7.40
2022-11-05T17:28:07.842Z,7.10
2022-11-05T17:30:54.596Z,7.13
2022-11-05T17:33:30.874Z,7.83
2022-11-05T17:36:01.582Z,7.40
2022-11-05T17:38:32.569Z,7.77
2022-11-05T17:41:11.564Z,7.73
2022-11-05T17:43:40.560Z,10.07
2022-11-05T17:46:18.642Z,11.80
2022-11-05T17:48:49.512Z,14.10
2022-11-05T17:51:20.098Z,14.40
2022-11-05T17:56:44.267Z,11.43
2022-11-05T17:59:12.505Z,10.57
2022-11-05T18:01:47.545Z,9.90
2022-11-05T18:04:19.312Z,9.67
2022-11-05T18:06:57.404Z,9.00
2022-11-05T18:09:27.822Z,9.23
2022-11-05T18:12:05.742Z,9.80
2022-11-05T18:14:38.523Z,9.80
2022-11-05T18:17:32.628Z,9.53
2022-11-05T18:22:45.106Z,8.80
2022-11-05T18:25:22.283Z,8.47
2022-11-05T18:27:54.627Z,8.73
2022-11-05T18:30:25.509Z,8.40
2022-11-05T18:32:55.264Z,8.40
2022-11-05T18:35:38.221Z,7.97
2022-11-05T18:38:09.947Z,8.17
2022-11-05T18:40:43.225Z,8.00
2022-11-05T18:46:05.607Z,8.37
2022-11-05T18:51:20.241Z,8.40
2022-11-05T18:54:00.647Z,8.00
2022-11-05T18:56:40.255Z,8.20
2022-11-05T19:01:57.786Z,8.30
2022-11-05T19:04:28.038Z,8.57
2022-11-05T19:07:04.521Z,8.50
2022-11-05T19:12:21.372Z,8.40
2022-11-05T19:15:03.234Z,8.83
2022-11-05T19:17:46.500Z,8.80
2022-11-05T19:20:15.044Z,8.33
2022-11-05T19:22:45.805Z,8.93
2022-11-05T19:25:28.476Z,8.83
2022-11-05T19:28:02.919Z,8.83
2022-11-05T19:33:15.826Z,8.27
2022-11-05T19:35:46.820Z,8.60
2022-11-05T19:38:19.314Z,8.67
2022-11-05T19:40:48.833Z,8.37
2022-11-05T19:43:22.468Z,8.10
2022-11-05T19:45:54.271Z,8.20
2022-11-05T19:48:25.095Z,8.50
2022-11-05T19:51:05.878Z,8.33
2022-11-05T19:53:40.230Z,8.60
2022-11-05T19:56:18.080Z,8.70
2022-11-05T19:58:58.535Z,8.70
2022-11-05T20:01:42.519Z,8.53
2022-11-05T20:07:04.458Z,8.37
2022-11-05T20:09:36.953Z,7.97
2022-11-05T20:12:16.834Z,8.50
2022-11-05T20:14:48.826Z,8.40
2022-11-05T20:17:23.204Z,8.53
2022-11-05T20:19:52.373Z,8.87
2022-11-05T20:22:44.864Z,8.80
2022-11-05T20:25:18.000Z,8.57
2022-11-05T20:27:47.331Z,8.43
2022-11-05T20:30:20.051Z,8.27
2022-11-05T20:32:53.255Z,7.63
2022-11-05T20:35:30.730Z,7.83
2022-11-05T20:38:01.998Z,7.80
2022-11-05T20:40:32.755Z,7.30
2022-11-05T20:43:02.590Z,7.90
2022-11-05T20:45:35.750Z,7.50
2022-11-05T20:48:03.530Z,7.23
2022-11-05T20:50:59.457Z,7.33
2022-11-05T20:53:28.613Z,7.77
2022-11-05T20:56:07.613Z,7.47
2022-11-05T20:58:38.856Z,7.20
2022-11-05T21:01:20.126Z,7.13
2022-11-05T21:03:59.265Z,6.70
2022-11-05T21:06:28.428Z,6.40
2022-11-05T21:09:24.858Z,6.80
2022-11-05T21:12:14.050Z,6.93
2022-11-05T21:14:48.999Z,6.77
2022-11-05T21:17:24.524Z,6.83
2022-11-05T21:22:39.563Z,6.77
2022-11-05T21:25:17.718Z,6.40
2022-11-05T21:27:50.415Z,6.43
2022-11-05T21:30:23.431Z,6.63
2022-11-05T21:32:54.535Z,6.30
2022-11-05T21:35:32.399Z,6.03
2022-11-05T21:38:04.234Z,6.33
2022-11-05T21:40:41.455Z,6.17
2022-11-05T21:43:19.831Z,6.27
2022-11-05T21:45:49.288Z,6.33
2022-11-05T21:48:18.577Z,6.00
2022-11-05T21:51:19.529Z,5.97
2022-11-05T21:54:09.218Z,6.23
2022-11-05T21:57:03.481Z,6.00
2022-11-05T21:59:56.699Z,6.33
2022-11-05T22:02:29.664Z,5.87
2022-11-05T22:05:07.546Z,6.30
2022-11-05T22:07:41.620Z,6.40
2022-11-05T22:10:20.400Z,5.93
2022-11-05T22:15:32.033Z,6.20
2022-11-05T22:18:07.952Z,6.47
2022-11-05T22:20:40.768Z,6.53
2022-11-05T22:25:53.060Z,6.00
2022-11-05T22:28:23.037Z,6.70
2022-11-05T22:30:53.606Z,6.53
2022-11-05T22:33:21.960Z,8.13
2022-11-05T22:35:55.798Z,10.10
2022-11-05T22:41:28.103Z,9.90
2022-11-05T22:44:01.099Z,9.57
2022-11-05T22:46:41.997Z,9.20
2022-11-05T22:49:12.728Z,9.33
2022-11-05T22:51:49.987Z,9.97
2022-11-05T22:54:20.433Z,10.37
2022-11-05T22:56:50.719Z,10.27
2022-11-05T22:59:21.165Z,10.00
2022-11-05T23:01:58.584Z,9.97
2022-11-05T23:04:26.450Z,9.33
2022-11-05T23:07:16.270Z,10.07
2022-11-05T23:10:08.220Z,9.20
2022-11-05T23:12:39.692Z,9.80
2022-11-05T23:15:09.966Z,9.03
2022-11-05T23:17:59.299Z,9.10
2022-11-05T23:20:47.758Z,9.50
2022-11-05T23:23:36.657Z,8.50
2022-11-05T23:26:26.431Z,8.93
2022-11-05T23:28:56.173Z,7.93
2022-11-05T23:31:44.504Z,8.07
2022-11-05T23:34:15.071Z,7.57
2022-11-05T23:37:06.377Z,7.13
2022-11-05T23:39:42.621Z,7.57
2022-11-05T23:42:33.355Z,7.87
2022-11-05T23:45:21.993Z,8.10
2022-11-05T23:48:12.183Z,8.17
2022-11-05T23:50:42.909Z,8.33
2022-11-05T23:53:20.471Z,8.20
2022-11-05T23:55:48.372Z,8.17
2022-11-05T23:58:18.674Z,8.07
